sensor_id;sensor_type;location;lat;lon;timestamp;pressure;altitude;pressure_sealevel;temperature;humidity
19751;BME280;4663;49.120;9.730;2023-04-26T00:02:25;98083.53;;;4.41;95.21
19751;BME280;4663;49.120;9.730;2023-04-26T00:04:54;98081.97;;;4.50;94.82
19751;BME280;4663;49.120;9.730;2023-04-26T00:07:23;98082.56;;;4.42;93.81
19751;BME280;4663;49.120;9.730;2023-04-26T00:09:49;98076.91;;;4.46;94.08
19751;BME280;4663;49.120;9.730;2023-04-26T00:12:15;98082.31;;;4.33;94.63
19751;BME280;4663;49.120;9.730;2023-04-26T00:14:40;98092.44;;;4.28;95.36
19751;BME280;4663;49.120;9.730;2023-04-26T00:17:06;98092.66;;;4.14;95.99
19751;BME280;4663;49.120;9.730;2023-04-26T00:19:31;98090.59;;;4.06;96.23
19751;BME280;4663;49.120;9.730;2023-04-26T00:21:56;98091.53;;;4.05;97.46
19751;BME280;4663;49.120;9.730;2023-04-26T00:24:22;98087.09;;;4.05;96.24
19751;BME280;4663;49.120;9.730;2023-04-26T00:26:48;98085.50;;;4.03;96.67
19751;BME280;4663;49.120;9.730;2023-04-26T00:29:13;98092.41;;;4.17;96.48
19751;BME280;4663;49.120;9.730;2023-04-26T00:31:38;98088.66;;;4.08;96.35
19751;BME280;4663;49.120;9.730;2023-04-26T00:34:04;98083.72;;;4.15;95.84
19751;BME280;4663;49.120;9.730;2023-04-26T00:36:29;98088.59;;;4.32;95.80
19751;BME280;4663;49.120;9.730;2023-04-26T00:38:56;98095.59;;;4.45;94.50
19751;BME280;4663;49.120;9.730;2023-04-26T00:41:21;98086.19;;;4.52;92.85
19751;BME280;4663;49.120;9.730;2023-04-26T00:43:48;98090.06;;;4.48;92.62
19751;BME280;4663;49.120;9.730;2023-04-26T00:46:13;98090.41;;;4.43;92.02
19751;BME280;4663;49.120;9.730;2023-04-26T00:48:39;98092.34;;;4.30;91.49
19751;BME280;4663;49.120;9.730;2023-04-26T00:51:05;98097.47;;;4.08;92.14
19751;BME280;4663;49.120;9.730;2023-04-26T00:53:31;98090.50;;;4.30;91.60
19751;BME280;4663;49.120;9.730;2023-04-26T00:55:58;98094.13;;;4.29;91.61
19751;BME280;4663;49.120;9.730;2023-04-26T00:58:24;98097.69;;;4.05;92.65
19751;BME280;4663;49.120;9.730;2023-04-26T01:00:50;98093.16;;;4.30;92.22
19751;BME280;4663;49.120;9.730;2023-04-26T01:03:15;98093.16;;;4.30;92.21
19751;BME280;4663;49.120;9.730;2023-04-26T01:05:42;98100.16;;;4.31;92.35
19751;BME280;4663;49.120;9.730;2023-04-26T01:08:07;98102.09;;;4.29;92.71
19751;BME280;4663;49.120;9.730;2023-04-26T01:10:33;98095.13;;;4.40;93.04
19751;BME280;4663;49.120;9.730;2023-04-26T01:13:00;98092.94;;;4.33;92.60
19751;BME280;4663;49.120;9.730;2023-04-26T01:15:25;98095.47;;;4.35;93.17
19751;BME280;4663;49.120;9.730;2023-04-26T01:17:55;98091.75;;;4.49;91.87
19751;BME280;4663;49.120;9.730;2023-04-26T01:20:21;98089.78;;;4.51;91.45
19751;BME280;4663;49.120;9.730;2023-04-26T01:22:47;98092.97;;;4.56;90.99
19751;BME280;4663;49.120;9.730;2023-04-26T01:25:12;98097.28;;;4.34;90.65
19751;BME280;4663;49.120;9.730;2023-04-26T01:27:38;98098.84;;;4.37;91.09
19751;BME280;4663;49.120;9.730;2023-04-26T01:30:04;98103.09;;;4.40;90.22
19751;BME280;4663;49.120;9.730;2023-04-26T01:32:30;98102.97;;;4.30;90.61
19751;BME280;4663;49.120;9.730;2023-04-26T01:34:55;98107.72;;;4.13;90.91
19751;BME280;4663;49.120;9.730;2023-04-26T01:37:21;98102.09;;;4.29;90.85
19751;BME280;4663;49.120;9.730;2023-04-26T01:39:46;98106.63;;;4.04;91.17
19751;BME280;4663;49.120;9.730;2023-04-26T01:42:11;98111.72;;;4.19;91.61
19751;BME280;4663;49.120;9.730;2023-04-26T01:44:37;98109.56;;;4.13;91.33
19751;BME280;4663;49.120;9.730;2023-04-26T01:47:02;98107.03;;;4.22;91.72
19751;BME280;4663;49.120;9.730;2023-04-26T01:49:28;98101.34;;;4.16;90.82
19751;BME280;4663;49.120;9.730;2023-04-26T01:51:54;98110.53;;;4.23;90.47
19751;BME280;4663;49.120;9.730;2023-04-26T01:54:19;98110.22;;;3.92;91.02
19751;BME280;4663;49.120;9.730;2023-04-26T01:56:45;98117.88;;;3.83;91.82
19751;BME280;4663;49.120;9.730;2023-04-26T01:59:10;98107.38;;;3.70;92.43
19751;BME280;4663;49.120;9.730;2023-04-26T02:01:36;98103.91;;;3.81;91.76
19751;BME280;4663;49.120;9.730;2023-04-26T02:04:01;98097.06;;;3.90;91.56
19751;BME280;4663;49.120;9.730;2023-04-26T02:06:27;98100.06;;;3.86;90.98
19751;BME280;4663;49.120;9.730;2023-04-26T02:08:52;98098.53;;;3.70;91.56
19751;BME280;4663;49.120;9.730;2023-04-26T02:11:18;98103.69;;;3.85;91.14
19751;BME280;4663;49.120;9.730;2023-04-26T02:13:43;98101.03;;;3.85;90.74
19751;BME280;4663;49.120;9.730;2023-04-26T02:16:09;98109.69;;;3.51;91.70
19751;BME280;4663;49.120;9.730;2023-04-26T02:18:34;98101.69;;;3.75;91.90
19751;BME280;4663;49.120;9.730;2023-04-26T02:21:00;98108.50;;;3.91;90.99
19751;BME280;4663;49.120;9.730;2023-04-26T02:23:25;98103.19;;;3.91;90.61
19751;BME280;4663;49.120;9.730;2023-04-26T02:25:50;98108.72;;;3.76;91.41
19751;BME280;4663;49.120;9.730;2023-04-26T02:28:16;98119.38;;;3.63;91.47
19751;BME280;4663;49.120;9.730;2023-04-26T02:30:42;98112.25;;;3.64;91.96
19751;BME280;4663;49.120;9.730;2023-04-26T02:33:08;98124.03;;;3.48;92.80
19751;BME280;4663;49.120;9.730;2023-04-26T02:35:34;98113.91;;;3.78;92.03
19751;BME280;4663;49.120;9.730;2023-04-26T02:38:00;98109.22;;;3.81;91.95
19751;BME280;4663;49.120;9.730;2023-04-26T02:40:26;98111.91;;;3.93;91.19
19751;BME280;4663;49.120;9.730;2023-04-26T02:42:51;98112.50;;;3.96;90.83
19751;BME280;4663;49.120;9.730;2023-04-26T02:45:17;98112.88;;;4.03;90.51
19751;BME280;4663;49.120;9.730;2023-04-26T02:47:42;98112.06;;;4.03;90.58
19751;BME280;4663;49.120;9.730;2023-04-26T02:50:08;98108.53;;;4.02;90.72
19751;BME280;4663;49.120;9.730;2023-04-26T02:52:34;98104.81;;;4.05;90.16
19751;BME280;4663;49.120;9.730;2023-04-26T02:55:00;98105.44;;;4.08;90.06
19751;BME280;4663;49.120;9.730;2023-04-26T02:57:26;98105.78;;;4.04;90.08
19751;BME280;4663;49.120;9.730;2023-04-26T02:59:52;98100.34;;;4.05;90.66
19751;BME280;4663;49.120;9.730;2023-04-26T03:02:17;98104.66;;;3.95;91.49
19751;BME280;4663;49.120;9.730;2023-04-26T03:04:43;98111.84;;;4.06;91.17
19751;BME280;4663;49.120;9.730;2023-04-26T03:07:08;98106.03;;;4.12;90.75
19751;BME280;4663;49.120;9.730;2023-04-26T03:09:33;98115.69;;;4.02;90.31
19751;BME280;4663;49.120;9.730;2023-04-26T03:11:59;98111.31;;;4.01;90.76
19751;BME280;4663;49.120;9.730;2023-04-26T03:14:24;98108.06;;;3.97;90.42
19751;BME280;4663;49.120;9.730;2023-04-26T03:16:51;98113.06;;;3.77;91.09
19751;BME280;4663;49.120;9.730;2023-04-26T03:19:16;98106.28;;;3.73;91.17
19751;BME280;4663;49.120;9.730;2023-04-26T03:21:42;98119.44;;;3.75;91.20
19751;BME280;4663;49.120;9.730;2023-04-26T03:24:07;98114.53;;;3.81;90.80
19751;BME280;4663;49.120;9.730;2023-04-26T03:26:32;98122.31;;;3.47;91.81
19751;BME280;4663;49.120;9.730;2023-04-26T03:28:58;98123.00;;;3.38;93.00
19751;BME280;4663;49.120;9.730;2023-04-26T03:31:23;98123.44;;;3.31;93.12
19751;BME280;4663;49.120;9.730;2023-04-26T03:33:48;98125.78;;;3.61;92.59
19751;BME280;4663;49.120;9.730;2023-04-26T03:36:14;98128.97;;;3.77;92.38
19751;BME280;4663;49.120;9.730;2023-04-26T03:38:39;98130.97;;;3.62;92.64
19751;BME280;4663;49.120;9.730;2023-04-26T03:41:07;98130.06;;;3.75;92.55
19751;BME280;4663;49.120;9.730;2023-04-26T03:43:32;98131.97;;;3.73;92.49
19751;BME280;4663;49.120;9.730;2023-04-26T03:45:57;98139.59;;;3.77;92.16
19751;BME280;4663;49.120;9.730;2023-04-26T03:48:23;98124.16;;;3.82;91.67
19751;BME280;4663;49.120;9.730;2023-04-26T03:50:48;98132.00;;;3.84;91.38
19751;BME280;4663;49.120;9.730;2023-04-26T03:53:13;98137.50;;;3.69;91.40
19751;BME280;4663;49.120;9.730;2023-04-26T03:55:39;98132.75;;;3.62;92.07
19751;BME280;4663;49.120;9.730;2023-04-26T03:58:04;98141.28;;;3.78;91.92
19751;BME280;4663;49.120;9.730;2023-04-26T04:00:36;98137.56;;;3.56;92.26
19751;BME280;4663;49.120;9.730;2023-04-26T04:03:01;98137.78;;;3.53;93.12
19751;BME280;4663;49.120;9.730;2023-04-26T04:05:27;98131.44;;;3.43;93.90
19751;BME280;4663;49.120;9.730;2023-04-26T04:07:52;98141.06;;;3.32;93.72
19751;BME280;4663;49.120;9.730;2023-04-26T04:10:17;98136.16;;;3.39;94.47
19751;BME280;4663;49.120;9.730;2023-04-26T04:12:43;98142.41;;;3.38;94.50
19751;BME280;4663;49.120;9.730;2023-04-26T04:15:09;98133.97;;;3.20;94.73
19751;BME280;4663;49.120;9.730;2023-04-26T04:17:34;98140.38;;;3.42;94.98
19751;BME280;4663;49.120;9.730;2023-04-26T04:20:01;98144.22;;;3.38;94.87
19751;BME280;4663;49.120;9.730;2023-04-26T04:22:27;98133.41;;;3.28;94.64
19751;BME280;4663;49.120;9.730;2023-04-26T04:24:52;98138.56;;;3.05;95.33
19751;BME280;4663;49.120;9.730;2023-04-26T04:27:18;98140.69;;;3.13;95.21
19751;BME280;4663;49.120;9.730;2023-04-26T04:29:45;98148.47;;;3.27;95.37
19751;BME280;4663;49.120;9.730;2023-04-26T04:32:11;98135.16;;;3.03;95.17
19751;BME280;4663;49.120;9.730;2023-04-26T04:34:37;98140.69;;;3.37;94.43
19751;BME280;4663;49.120;9.730;2023-04-26T04:37:03;98147.59;;;3.40;93.69
19751;BME280;4663;49.120;9.730;2023-04-26T04:39:28;98142.34;;;3.27;94.13
19751;BME280;4663;49.120;9.730;2023-04-26T04:41:54;98142.16;;;3.41;93.43
19751;BME280;4663;49.120;9.730;2023-04-26T04:44:19;98147.53;;;3.28;93.19
19751;BME280;4663;49.120;9.730;2023-04-26T04:46:45;98143.88;;;3.67;93.28
19751;BME280;4663;49.120;9.730;2023-04-26T04:49:11;98149.94;;;3.69;92.33
19751;BME280;4663;49.120;9.730;2023-04-26T04:51:37;98151.28;;;3.75;92.77
19751;BME280;4663;49.120;9.730;2023-04-26T04:54:17;98148.28;;;3.79;92.65
19751;BME280;4663;49.120;9.730;2023-04-26T04:56:43;98158.16;;;3.53;92.67
19751;BME280;4663;49.120;9.730;2023-04-26T04:59:09;98161.78;;;3.76;92.12
19751;BME280;4663;49.120;9.730;2023-04-26T05:01:34;98156.75;;;3.85;90.48
19751;BME280;4663;49.120;9.730;2023-04-26T05:04:01;98158.13;;;3.66;91.17
19751;BME280;4663;49.120;9.730;2023-04-26T05:06:27;98157.44;;;3.51;92.87
19751;BME280;4663;49.120;9.730;2023-04-26T05:08:54;98158.50;;;3.73;92.89
19751;BME280;4663;49.120;9.730;2023-04-26T05:11:20;98157.25;;;3.90;92.47
19751;BME280;4663;49.120;9.730;2023-04-26T05:13:46;98164.16;;;3.92;91.28
19751;BME280;4663;49.120;9.730;2023-04-26T05:16:12;98170.09;;;3.96;91.23
19751;BME280;4663;49.120;9.730;2023-04-26T05:18:37;98174.69;;;4.05;90.96
19751;BME280;4663;49.120;9.730;2023-04-26T05:21:03;98173.19;;;4.14;90.70
19751;BME280;4663;49.120;9.730;2023-04-26T05:23:28;98188.50;;;4.22;90.64
19751;BME280;4663;49.120;9.730;2023-04-26T05:25:54;98189.00;;;4.27;90.13
19751;BME280;4663;49.120;9.730;2023-04-26T05:28:20;98190.94;;;4.25;90.70
19751;BME280;4663;49.120;9.730;2023-04-26T05:30:45;98194.81;;;3.72;91.88
19751;BME280;4663;49.120;9.730;2023-04-26T05:33:11;98201.34;;;3.79;91.66
19751;BME280;4663;49.120;9.730;2023-04-26T05:35:36;98198.41;;;4.20;91.68
19751;BME280;4663;49.120;9.730;2023-04-26T05:38:02;98196.16;;;4.02;91.25
19751;BME280;4663;49.120;9.730;2023-04-26T05:40:28;98198.78;;;3.66;91.91
19751;BME280;4663;49.120;9.730;2023-04-26T05:42:54;98200.88;;;3.99;92.80
19751;BME280;4663;49.120;9.730;2023-04-26T05:45:19;98210.25;;;4.27;92.63
19751;BME280;4663;49.120;9.730;2023-04-26T05:47:44;98208.72;;;4.36;91.77
19751;BME280;4663;49.120;9.730;2023-04-26T05:50:11;98217.34;;;4.51;92.17
19751;BME280;4663;49.120;9.730;2023-04-26T05:52:37;98213.47;;;4.44;91.27
19751;BME280;4663;49.120;9.730;2023-04-26T05:55:02;98208.41;;;4.52;91.12
19751;BME280;4663;49.120;9.730;2023-04-26T05:57:29;98216.16;;;4.67;91.12
19751;BME280;4663;49.120;9.730;2023-04-26T05:59:54;98225.97;;;4.66;91.29
19751;BME280;4663;49.120;9.730;2023-04-26T06:02:20;98225.53;;;4.95;91.18
19751;BME280;4663;49.120;9.730;2023-04-26T06:04:45;98216.09;;;5.03;90.11
19751;BME280;4663;49.120;9.730;2023-04-26T06:07:11;98216.03;;;4.21;89.10
19751;BME280;4663;49.120;9.730;2023-04-26T06:09:37;98223.09;;;4.33;90.86
19751;BME280;4663;49.120;9.730;2023-04-26T06:12:02;98220.13;;;4.14;90.52
19751;BME280;4663;49.120;9.730;2023-04-26T06:14:28;98220.66;;;4.30;91.38
19751;BME280;4663;49.120;9.730;2023-04-26T06:16:55;98224.13;;;4.67;91.16
19751;BME280;4663;49.120;9.730;2023-04-26T06:19:20;98215.38;;;4.42;90.32
19751;BME280;4663;49.120;9.730;2023-04-26T06:21:46;98216.88;;;4.57;90.49
19751;BME280;4663;49.120;9.730;2023-04-26T06:24:13;98212.31;;;4.82;90.51
19751;BME280;4663;49.120;9.730;2023-04-26T06:26:38;98205.13;;;4.96;90.09
19751;BME280;4663;49.120;9.730;2023-04-26T06:29:03;98217.97;;;5.92;91.99
19751;BME280;4663;49.120;9.730;2023-04-26T06:31:29;98209.81;;;6.59;88.28
19751;BME280;4663;49.120;9.730;2023-04-26T06:33:54;98214.25;;;6.70;86.08
19751;BME280;4663;49.120;9.730;2023-04-26T06:36:20;98218.84;;;6.89;86.52
19751;BME280;4663;49.120;9.730;2023-04-26T06:38:45;98221.28;;;7.55;85.67
19751;BME280;4663;49.120;9.730;2023-04-26T06:41:11;98214.69;;;7.28;85.12
19751;BME280;4663;49.120;9.730;2023-04-26T06:43:36;98228.81;;;8.20;86.00
19751;BME280;4663;49.120;9.730;2023-04-26T06:46:01;98220.41;;;9.22;85.81
19751;BME280;4663;49.120;9.730;2023-04-26T06:48:27;98224.88;;;8.64;81.90
19751;BME280;4663;49.120;9.730;2023-04-26T06:50:52;98231.84;;;9.53;83.71
19751;BME280;4663;49.120;9.730;2023-04-26T06:53:17;98199.47;;;8.98;77.99
19751;BME280;4663;49.120;9.730;2023-04-26T06:55:43;98210.75;;;9.40;79.07
19751;BME280;4663;49.120;9.730;2023-04-26T06:58:08;98223.69;;;10.00;81.37
19751;BME280;4663;49.120;9.730;2023-04-26T07:00:34;98204.97;;;9.72;78.42
19751;BME280;4663;49.120;9.730;2023-04-26T07:02:59;98183.78;;;9.23;73.63
19751;BME280;4663;49.120;9.730;2023-04-26T07:05:25;98201.84;;;10.13;75.95
19751;BME280;4663;49.120;9.730;2023-04-26T07:07:50;98198.72;;;10.18;73.01
19751;BME280;4663;49.120;9.730;2023-04-26T07:10:16;98186.81;;;10.02;70.40
19751;BME280;4663;49.120;9.730;2023-04-26T07:12:41;98221.38;;;10.42;76.96
19751;BME280;4663;49.120;9.730;2023-04-26T07:15:07;98176.75;;;10.77;69.25
19751;BME280;4663;49.120;9.730;2023-04-26T07:17:33;98191.09;;;9.95;71.20
19751;BME280;4663;49.120;9.730;2023-04-26T07:19:58;98182.59;;;10.99;70.16
19751;BME280;4663;49.120;9.730;2023-04-26T07:22:24;98183.91;;;9.78;69.27
19751;BME280;4663;49.120;9.730;2023-04-26T07:24:49;98177.53;;;9.79;68.69
19751;BME280;4663;49.120;9.730;2023-04-26T07:27:15;98132.78;;;9.89;62.88
19751;BME280;4663;49.120;9.730;2023-04-26T07:29:40;98157.28;;;10.12;64.18
19751;BME280;4663;49.120;9.730;2023-04-26T07:32:06;98188.97;;;11.07;69.33
19751;BME280;4663;49.120;9.730;2023-04-26T07:34:31;98150.69;;;11.31;63.94
19751;BME280;4663;49.120;9.730;2023-04-26T07:36:57;98158.00;;;11.64;64.38
19751;BME280;4663;49.120;9.730;2023-04-26T07:39:22;98155.78;;;12.19;63.46
19751;BME280;4663;49.120;9.730;2023-04-26T07:41:48;98121.88;;;13.00;59.50
19751;BME280;4663;49.120;9.730;2023-04-26T07:44:13;98107.22;;;13.10;56.50
19751;BME280;4663;49.120;9.730;2023-04-26T07:46:39;98080.66;;;12.09;54.51
19751;BME280;4663;49.120;9.730;2023-04-26T07:49:04;98157.63;;;12.18;61.03
19751;BME280;4663;49.120;9.730;2023-04-26T07:51:30;98155.25;;;12.40;59.84
19751;BME280;4663;49.120;9.730;2023-04-26T07:53:56;98140.16;;;12.06;58.50
19751;BME280;4663;49.120;9.730;2023-04-26T07:56:23;98157.13;;;12.40;59.61
19751;BME280;4663;49.120;9.730;2023-04-26T07:58:48;98151.22;;;13.34;58.29
19751;BME280;4663;49.120;9.730;2023-04-26T08:01:13;98103.13;;;12.58;53.76
19751;BME280;4663;49.120;9.730;2023-04-26T08:03:40;98158.41;;;12.85;57.48
19751;BME280;4663;49.120;9.730;2023-04-26T08:06:05;98134.88;;;12.79;55.50
19751;BME280;4663;49.120;9.730;2023-04-26T08:08:33;98182.66;;;12.61;60.60
19751;BME280;4663;49.120;9.730;2023-04-26T08:10:59;98145.75;;;13.51;57.57
19751;BME280;4663;49.120;9.730;2023-04-26T08:13:24;98130.63;;;13.97;56.31
19751;BME280;4663;49.120;9.730;2023-04-26T08:15:50;98139.94;;;13.94;56.09
19751;BME280;4663;49.120;9.730;2023-04-26T08:18:15;98156.03;;;14.11;57.44
19751;BME280;4663;49.120;9.730;2023-04-26T08:20:41;98107.97;;;13.59;53.81
19751;BME280;4663;49.120;9.730;2023-04-26T08:23:06;98115.78;;;11.99;55.06
19751;BME280;4663;49.120;9.730;2023-04-26T08:25:31;98138.69;;;13.50;55.98
19751;BME280;4663;49.120;9.730;2023-04-26T08:27:59;98048.63;;;12.56;49.90
19751;BME280;4663;49.120;9.730;2023-04-26T08:30:24;98084.72;;;11.37;52.69
19751;BME280;4663;49.120;9.730;2023-04-26T08:32:50;98139.66;;;12.27;54.49
19751;BME280;4663;49.120;9.730;2023-04-26T08:35:15;98127.53;;;12.48;53.94
19751;BME280;4663;49.120;9.730;2023-04-26T08:37:41;98118.66;;;11.46;54.47
19751;BME280;4663;49.120;9.730;2023-04-26T08:40:07;98130.88;;;11.92;54.87
19751;BME280;4663;49.120;9.730;2023-04-26T08:42:40;98160.63;;;13.70;56.18
19751;BME280;4663;49.120;9.730;2023-04-26T08:45:09;98114.53;;;13.65;52.82
19751;BME280;4663;49.120;9.730;2023-04-26T08:47:42;98118.03;;;12.85;53.76
19751;BME280;4663;49.120;9.730;2023-04-26T08:50:10;98132.59;;;12.43;54.14
19751;BME280;4663;49.120;9.730;2023-04-26T08:52:37;98202.44;;;13.66;59.64
19751;BME280;4663;49.120;9.730;2023-04-26T08:55:07;98107.50;;;14.64;51.55
19751;BME280;4663;49.120;9.730;2023-04-26T08:57:34;98164.88;;;13.65;56.63
19751;BME280;4663;49.120;9.730;2023-04-26T09:00:02;98114.50;;;13.33;53.07
19751;BME280;4663;49.120;9.730;2023-04-26T09:02:30;98163.59;;;13.04;56.99
19751;BME280;4663;49.120;9.730;2023-04-26T09:04:56;98115.41;;;12.52;53.87
19751;BME280;4663;49.120;9.730;2023-04-26T09:07:35;98111.38;;;11.90;53.10
19751;BME280;4663;49.120;9.730;2023-04-26T09:10:04;98111.47;;;11.63;54.36
19751;BME280;4663;49.120;9.730;2023-04-26T09:12:30;98150.22;;;12.04;56.84
19751;BME280;4663;49.120;9.730;2023-04-26T09:14:56;98150.78;;;13.14;57.29
19751;BME280;4663;49.120;9.730;2023-04-26T09:19:55;98158.75;;;15.48;55.64
19751;BME280;4663;49.120;9.730;2023-04-26T09:24:53;98093.13;;;12.92;52.41
19751;BME280;4663;49.120;9.730;2023-04-26T09:27:19;98092.72;;;13.75;51.77
19751;BME280;4663;49.120;9.730;2023-04-26T09:30:09;98079.72;;;14.41;50.63
19751;BME280;4663;49.120;9.730;2023-04-26T09:40:21;98105.22;;;11.46;55.15
19751;BME280;4663;49.120;9.730;2023-04-26T09:42:59;98092.81;;;11.45;53.92
19751;BME280;4663;49.120;9.730;2023-04-26T09:45:26;98112.47;;;11.02;56.16
19751;BME280;4663;49.120;9.730;2023-04-26T09:47:51;98110.50;;;11.13;55.37
19751;BME280;4663;49.120;9.730;2023-04-26T09:50:28;98106.53;;;10.56;56.29
19751;BME280;4663;49.120;9.730;2023-04-26T09:52:54;98110.97;;;10.47;56.77
19751;BME280;4663;49.120;9.730;2023-04-26T09:55:28;98126.31;;;11.24;57.26
19751;BME280;4663;49.120;9.730;2023-04-26T09:57:54;98112.19;;;11.74;56.94
19751;BME280;4663;49.120;9.730;2023-04-26T10:00:21;98100.72;;;11.47;55.42
19751;BME280;4663;49.120;9.730;2023-04-26T10:02:48;98084.53;;;10.87;54.34
19751;BME280;4663;49.120;9.730;2023-04-26T10:05:13;98087.06;;;11.23;54.78
19751;BME280;4663;49.120;9.730;2023-04-26T10:07:39;98093.41;;;11.22;54.70
19751;BME280;4663;49.120;9.730;2023-04-26T10:10:06;98094.13;;;10.63;56.15
19751;BME280;4663;49.120;9.730;2023-04-26T10:12:33;98108.50;;;10.80;56.26
19751;BME280;4663;49.120;9.730;2023-04-26T10:14:58;98149.53;;;11.85;60.07
19751;BME280;4663;49.120;9.730;2023-04-26T10:17:24;98117.44;;;12.25;57.70
19751;BME280;4663;49.120;9.730;2023-04-26T10:19:52;98091.75;;;12.06;55.19
19751;BME280;4663;49.120;9.730;2023-04-26T10:22:22;98100.06;;;12.69;54.60
19751;BME280;4663;49.120;9.730;2023-04-26T10:24:50;98060.47;;;11.97;52.18
19751;BME280;4663;49.120;9.730;2023-04-26T10:30:19;98104.84;;;13.16;54.30
19751;BME280;4663;49.120;9.730;2023-04-26T10:35:19;98073.53;;;12.58;52.19
19751;BME280;4663;49.120;9.730;2023-04-26T10:40:38;98057.25;;;12.26;51.12
19751;BME280;4663;49.120;9.730;2023-04-26T10:45:47;98056.53;;;13.46;50.29
19751;BME280;4663;49.120;9.730;2023-04-26T10:53:29;98055.91;;;12.47;51.06
19751;BME280;4663;49.120;9.730;2023-04-26T10:55:55;98043.03;;;12.01;49.94
19751;BME280;4663;49.120;9.730;2023-04-26T10:58:28;98051.38;;;11.64;51.98
19751;BME280;4663;49.120;9.730;2023-04-26T11:03:32;98040.44;;;12.41;50.57
19751;BME280;4663;49.120;9.730;2023-04-26T11:05:58;98020.00;;;12.15;49.10
19751;BME280;4663;49.120;9.730;2023-04-26T11:08:26;98055.97;;;12.79;51.31
19751;BME280;4663;49.120;9.730;2023-04-26T11:10:57;98029.72;;;12.16;50.11
19751;BME280;4663;49.120;9.730;2023-04-26T11:13:23;98022.69;;;11.81;49.80
19751;BME280;4663;49.120;9.730;2023-04-26T11:15:53;98038.75;;;11.48;51.58
19751;BME280;4663;49.120;9.730;2023-04-26T11:18:19;98039.13;;;11.78;50.63
19751;BME280;4663;49.120;9.730;2023-04-26T11:20:45;98070.09;;;12.81;52.98
19751;BME280;4663;49.120;9.730;2023-04-26T11:23:10;98038.78;;;13.28;50.70
19751;BME280;4663;49.120;9.730;2023-04-26T11:25:38;98028.88;;;12.80;50.10
19751;BME280;4663;49.120;9.730;2023-04-26T11:28:06;98022.09;;;13.01;49.86
19751;BME280;4663;49.120;9.730;2023-04-26T11:31:02;98023.47;;;12.89;50.21
19751;BME280;4663;49.120;9.730;2023-04-26T11:33:34;98000.75;;;12.43;49.13
19751;BME280;4663;49.120;9.730;2023-04-26T11:35:59;98008.03;;;12.26;50.04
19751;BME280;4663;49.120;9.730;2023-04-26T11:38:40;97994.13;;;11.64;49.89
19751;BME280;4663;49.120;9.730;2023-04-26T11:41:12;97974.66;;;11.95;48.42
19751;BME280;4663;49.120;9.730;2023-04-26T11:43:38;98014.63;;;11.81;50.76
19751;BME280;4663;49.120;9.730;2023-04-26T11:46:05;98005.53;;;11.82;50.66
19751;BME280;4663;49.120;9.730;2023-04-26T11:48:35;97992.41;;;11.63;49.96
19751;BME280;4663;49.120;9.730;2023-04-26T11:51:05;97995.63;;;11.66;50.00
19751;BME280;4663;49.120;9.730;2023-04-26T11:53:41;97998.47;;;11.56;50.64
19751;BME280;4663;49.120;9.730;2023-04-26T11:56:25;97997.47;;;11.74;51.11
19751;BME280;4663;49.120;9.730;2023-04-26T11:58:51;97992.28;;;11.89;50.60
19751;BME280;4663;49.120;9.730;2023-04-26T12:01:39;97978.19;;;11.79;50.25
19751;BME280;4663;49.120;9.730;2023-04-26T12:04:17;97980.88;;;12.52;49.83
19751;BME280;4663;49.120;9.730;2023-04-26T12:07:06;97974.63;;;13.00;48.46
19751;BME280;4663;49.120;9.730;2023-04-26T12:12:48;98005.34;;;12.74;51.27
19751;BME280;4663;49.120;9.730;2023-04-26T12:15:33;97996.28;;;12.75;50.08
19751;BME280;4663;49.120;9.730;2023-04-26T12:18:09;97994.09;;;12.70;49.87
19751;BME280;4663;49.120;9.730;2023-04-26T12:20:44;98013.00;;;12.94;51.34
19751;BME280;4663;49.120;9.730;2023-04-26T12:23:54;97993.47;;;13.00;49.96
19751;BME280;4663;49.120;9.730;2023-04-26T12:26:44;97990.03;;;13.61;49.52
19751;BME280;4663;49.120;9.730;2023-04-26T12:29:16;97989.88;;;13.40;49.41
19751;BME280;4663;49.120;9.730;2023-04-26T12:35:14;97970.97;;;12.84;49.03
19751;BME280;4663;49.120;9.730;2023-04-26T12:37:40;97971.94;;;13.00;49.38
19751;BME280;4663;49.120;9.730;2023-04-26T12:40:32;98004.72;;;14.66;49.44
19751;BME280;4663;49.120;9.730;2023-04-26T12:43:00;97980.34;;;14.29;48.82
19751;BME280;4663;49.120;9.730;2023-04-26T12:45:28;98015.69;;;15.47;50.56
19751;BME280;4663;49.120;9.730;2023-04-26T12:48:08;97974.72;;;15.43;48.16
19751;BME280;4663;49.120;9.730;2023-04-26T12:50:57;97952.28;;;13.46;48.88
19751;BME280;4663;49.120;9.730;2023-04-26T12:53:22;97983.41;;;14.11;49.80
19751;BME280;4663;49.120;9.730;2023-04-26T12:55:47;97966.09;;;14.05;48.19
19751;BME280;4663;49.120;9.730;2023-04-26T12:58:43;97953.06;;;13.32;48.17
19751;BME280;4663;49.120;9.730;2023-04-26T13:01:12;97974.75;;;13.77;49.10
19751;BME280;4663;49.120;9.730;2023-04-26T13:03:38;97960.19;;;13.48;48.39
19751;BME280;4663;49.120;9.730;2023-04-26T13:06:19;97946.81;;;13.55;48.48
19751;BME280;4663;49.120;9.730;2023-04-26T13:08:59;97977.00;;;13.73;50.07
19751;BME280;4663;49.120;9.730;2023-04-26T13:11:28;97958.94;;;13.12;49.06
19751;BME280;4663;49.120;9.730;2023-04-26T13:13:56;97966.84;;;13.75;49.67
19751;BME280;4663;49.120;9.730;2023-04-26T13:16:28;97967.00;;;13.59;49.61
19751;BME280;4663;49.120;9.730;2023-04-26T13:22:25;97964.03;;;13.69;48.99
19751;BME280;4663;49.120;9.730;2023-04-26T13:24:52;97956.28;;;12.64;49.48
19751;BME280;4663;49.120;9.730;2023-04-26T13:27:30;98001.91;;;13.52;52.01
19751;BME280;4663;49.120;9.730;2023-04-26T13:29:55;97957.47;;;13.48;49.09
19751;BME280;4663;49.120;9.730;2023-04-26T13:32:28;97951.44;;;12.91;49.87
19751;BME280;4663;49.120;9.730;2023-04-26T13:35:06;97974.34;;;13.18;50.26
19751;BME280;4663;49.120;9.730;2023-04-26T13:37:38;97978.09;;;12.77;52.37
19751;BME280;4663;49.120;9.730;2023-04-26T13:40:04;97958.94;;;13.35;49.93
19751;BME280;4663;49.120;9.730;2023-04-26T13:42:36;97941.91;;;13.58;48.32
19751;BME280;4663;49.120;9.730;2023-04-26T13:45:08;97959.03;;;14.19;49.15
19751;BME280;4663;49.120;9.730;2023-04-26T13:48:00;97947.25;;;13.20;49.38
19751;BME280;4663;49.120;9.730;2023-04-26T13:50:28;97946.81;;;13.08;49.74
19751;BME280;4663;49.120;9.730;2023-04-26T13:53:06;97959.41;;;13.16;49.95
19751;BME280;4663;49.120;9.730;2023-04-26T13:55:32;97951.16;;;12.45;50.42
19751;BME280;4663;49.120;9.730;2023-04-26T13:58:06;97965.44;;;12.38;51.31
19751;BME280;4663;49.120;9.730;2023-04-26T14:00:35;97944.13;;;12.76;49.37
19751;BME280;4663;49.120;9.730;2023-04-26T14:03:00;97967.22;;;12.94;51.12